VCV56 SVMI-SVCU
Flight info
| Callsign | VCV56 |
|---|---|
| Flight time | 0h 33m |
| Altitude | 23000 |
| Route | SOSKA2 CBC |
| Aircraft | E190/M-SDE3GILORVW/S |
Departure
| Time | 2026-05-04 23:39 |
|---|---|
| Airport | Maiquetía Simón Bolívar International Airport (SVMI) |
Arrival
| Time | 2026-05-05 00:12 |
|---|---|
| Airport | Antonio José de Sucre Airport (SVCU) |
| Time | Latitude | Longitude | Altitude | Speed | Heading |
|---|---|---|---|---|---|
| 2026-05-04 23:13 | 10.59833 | -67.00077 | 220 ft | 0 kts | 178° |
| 2026-05-04 23:29 | 10.59836 | -67.00077 | 193 ft | 3 kts | 178° |
| 2026-05-04 23:29 | 10.59862 | -67.00078 | 222 ft | 4 kts | 178° |
| 2026-05-04 23:29 | 10.59885 | -67.00079 | 221 ft | 4 kts | 181° |
| 2026-05-04 23:29 | 10.59907 | -67.00074 | 222 ft | 4 kts | 243° |
| 2026-05-04 23:30 | 10.59911 | -67.00048 | 220 ft | 4 kts | 270° |
| 2026-05-04 23:30 | 10.59911 | -67.00042 | 220 ft | 0 kts | 268° |
| 2026-05-04 23:32 | 10.59911 | -67.00048 | 220 ft | 2 kts | 268° |
| 2026-05-04 23:32 | 10.59914 | -67.00069 | 220 ft | 4 kts | 295° |
| 2026-05-04 23:33 | 10.59945 | -67.00081 | 220 ft | 6 kts | 351° |
| 2026-05-04 23:33 | 10.60001 | -67.00085 | 221 ft | 9 kts | 356° |
| 2026-05-04 23:33 | 10.60025 | -67.00133 | 221 ft | 9 kts | 272° |
| 2026-05-04 23:33 | 10.60024 | -67.00196 | 222 ft | 9 kts | 268° |
| 2026-05-04 23:34 | 10.60020 | -67.00262 | 223 ft | 10 kts | 258° |
| 2026-05-04 23:34 | 10.60004 | -67.00330 | 224 ft | 10 kts | 264° |
| 2026-05-04 23:34 | 10.60001 | -67.00404 | 225 ft | 11 kts | 268° |
| 2026-05-04 23:34 | 10.59999 | -67.00483 | 227 ft | 11 kts | 268° |
| 2026-05-04 23:35 | 10.59997 | -67.00564 | 228 ft | 12 kts | 268° |
| 2026-05-04 23:35 | 10.59993 | -67.00649 | 230 ft | 12 kts | 268° |
| 2026-05-04 23:35 | 10.59991 | -67.00736 | 231 ft | 13 kts | 268° |
| 2026-05-04 23:35 | 10.59988 | -67.00827 | 233 ft | 13 kts | 268° |
| 2026-05-04 23:36 | 10.59985 | -67.00920 | 234 ft | 13 kts | 268° |
| 2026-05-04 23:36 | 10.59982 | -67.01014 | 236 ft | 13 kts | 268° |
| 2026-05-04 23:36 | 10.59979 | -67.01110 | 238 ft | 14 kts | 268° |
| 2026-05-04 23:36 | 10.59977 | -67.01189 | 239 ft | 10 kts | 268° |
| 2026-05-04 23:37 | 10.60016 | -67.01239 | 240 ft | 10 kts | 345° |
| 2026-05-04 23:37 | 10.60092 | -67.01244 | 240 ft | 12 kts | 358° |
| 2026-05-04 23:37 | 10.60187 | -67.01247 | 237 ft | 16 kts | 358° |
| 2026-05-04 23:37 | 10.60290 | -67.01251 | 238 ft | 14 kts | 358° |
| 2026-05-04 23:38 | 10.60372 | -67.01246 | 240 ft | 8 kts | 41° |
| 2026-05-04 23:38 | 10.60384 | -67.01163 | 238 ft | 27 kts | 88° |
| 2026-05-04 23:38 | 10.60396 | -67.00750 | 233 ft | 92 kts | 88° |
| 2026-05-04 23:38 | 10.60423 | -66.99889 | 218 ft | 150 kts | 88° |
| 2026-05-04 23:39 | 10.60464 | -66.98732 | 569 ft | 174 kts | 88° |
| 2026-05-04 23:39 | 10.60550 | -66.97432 | 1041 ft | 203 kts | 84° |
| 2026-05-04 23:39 | 10.60799 | -66.95979 | 1814 ft | 216 kts | 79° |
| 2026-05-04 23:39 | 10.61102 | -66.94495 | 2988 ft | 215 kts | 80° |
| 2026-05-04 23:40 | 10.61393 | -66.92906 | 3763 ft | 240 kts | 81° |
| 2026-05-04 23:40 | 10.61687 | -66.91154 | 4592 ft | 260 kts | 82° |
| 2026-05-04 23:40 | 10.62001 | -66.89305 | 5611 ft | 269 kts | 82° |
| 2026-05-04 23:40 | 10.62339 | -66.87410 | 6671 ft | 275 kts | 82° |
| 2026-05-04 23:41 | 10.62677 | -66.85496 | 7791 ft | 275 kts | 82° |
| 2026-05-04 23:41 | 10.63011 | -66.83574 | 8901 ft | 278 kts | 81° |
| 2026-05-04 23:41 | 10.63345 | -66.81632 | 9970 ft | 280 kts | 81° |
| 2026-05-04 23:41 | 10.63684 | -66.79659 | 10563 ft | 295 kts | 81° |
| 2026-05-04 23:42 | 10.64053 | -66.77532 | 11074 ft | 313 kts | 81° |
| 2026-05-04 23:42 | 10.64446 | -66.75265 | 11131 ft | 335 kts | 81° |
| 2026-05-04 23:42 | 10.64850 | -66.72946 | 11036 ft | 331 kts | 81° |
| 2026-05-04 23:42 | 10.65249 | -66.70654 | 11041 ft | 333 kts | 81° |
| 2026-05-04 23:43 | 10.65651 | -66.68333 | 11048 ft | 334 kts | 81° |
| 2026-05-04 23:43 | 10.66055 | -66.66002 | 11045 ft | 334 kts | 81° |
| 2026-05-04 23:43 | 10.66458 | -66.63673 | 11056 ft | 335 kts | 81° |
| 2026-05-04 23:43 | 10.66864 | -66.61340 | 11062 ft | 335 kts | 81° |
| 2026-05-04 23:44 | 10.67272 | -66.59009 | 11062 ft | 335 kts | 81° |
| 2026-05-04 23:44 | 10.67677 | -66.56677 | 11062 ft | 335 kts | 81° |
| 2026-05-04 23:44 | 10.68080 | -66.54341 | 11062 ft | 335 kts | 81° |
| 2026-05-04 23:44 | 10.68485 | -66.52009 | 11069 ft | 335 kts | 81° |
| 2026-05-04 23:45 | 10.68766 | -66.49673 | 11895 ft | 335 kts | 91° |
| 2026-05-04 23:45 | 10.68352 | -66.47324 | 12885 ft | 339 kts | 104° |
| 2026-05-04 23:45 | 10.67742 | -66.44992 | 13861 ft | 344 kts | 104° |
| 2026-05-04 23:45 | 10.67142 | -66.42616 | 14730 ft | 349 kts | 103° |
| 2026-05-04 23:46 | 10.66528 | -66.40206 | 15625 ft | 354 kts | 103° |
| 2026-05-04 23:46 | 10.65907 | -66.37767 | 16533 ft | 359 kts | 104° |
| 2026-05-04 23:46 | 10.65270 | -66.35299 | 17396 ft | 363 kts | 103° |
| 2026-05-04 23:46 | 10.64628 | -66.32804 | 18210 ft | 367 kts | 103° |
| 2026-05-04 23:47 | 10.63973 | -66.30268 | 18816 ft | 374 kts | 103° |
| 2026-05-04 23:47 | 10.63301 | -66.27685 | 19372 ft | 382 kts | 103° |
| 2026-05-04 23:47 | 10.62616 | -66.25055 | 19921 ft | 389 kts | 103° |
| 2026-05-04 23:47 | 10.61918 | -66.22378 | 20468 ft | 395 kts | 103° |
| 2026-05-04 23:48 | 10.61205 | -66.19654 | 20975 ft | 402 kts | 103° |
| 2026-05-04 23:48 | 10.60476 | -66.16874 | 21131 ft | 409 kts | 103° |
| 2026-05-04 23:48 | 10.59751 | -66.14125 | 21145 ft | 406 kts | 103° |
| 2026-05-04 23:48 | 10.59020 | -66.11349 | 21159 ft | 405 kts | 103° |
| 2026-05-04 23:49 | 10.58290 | -66.08577 | 21129 ft | 405 kts | 103° |
| 2026-05-04 23:49 | 10.57809 | -66.06744 | 21095 ft | 404 kts | 103° |
| 2026-05-04 23:49 | 10.57267 | -66.03949 | 21090 ft | 401 kts | 95° |
| 2026-05-04 23:49 | 10.57060 | -66.00169 | 21053 ft | 401 kts | 91° |
| 2026-05-04 23:50 | 10.56931 | -65.97343 | 21056 ft | 400 kts | 92° |
| 2026-05-04 23:50 | 10.56829 | -65.95470 | 21056 ft | 400 kts | 91° |
| 2026-05-04 23:50 | 10.56675 | -65.92649 | 21054 ft | 400 kts | 92° |
| 2026-05-04 23:50 | 10.56512 | -65.89825 | 21052 ft | 400 kts | 92° |
| 2026-05-04 23:51 | 10.56342 | -65.87003 | 21054 ft | 400 kts | 92° |
| 2026-05-04 23:51 | 10.56166 | -65.84180 | 21054 ft | 400 kts | 92° |
| 2026-05-04 23:51 | 10.55985 | -65.81359 | 21053 ft | 400 kts | 92° |
| 2026-05-04 23:51 | 10.55802 | -65.78536 | 21049 ft | 400 kts | 92° |
| 2026-05-04 23:52 | 10.55616 | -65.75717 | 21050 ft | 400 kts | 92° |
| 2026-05-04 23:52 | 10.55437 | -65.72898 | 21052 ft | 400 kts | 92° |
| 2026-05-04 23:52 | 10.55252 | -65.70079 | 21047 ft | 400 kts | 92° |
| 2026-05-04 23:52 | 10.55066 | -65.67258 | 21050 ft | 400 kts | 92° |
| 2026-05-04 23:53 | 10.54878 | -65.64443 | 21050 ft | 400 kts | 92° |
| 2026-05-04 23:53 | 10.54688 | -65.61623 | 21046 ft | 400 kts | 92° |
| 2026-05-04 23:53 | 10.54498 | -65.58807 | 21048 ft | 400 kts | 92° |
| 2026-05-04 23:53 | 10.54311 | -65.56026 | 21049 ft | 400 kts | 92° |
| 2026-05-04 23:54 | 10.54119 | -65.53210 | 21046 ft | 400 kts | 92° |
| 2026-05-04 23:54 | 10.53929 | -65.50394 | 21048 ft | 400 kts | 92° |
| 2026-05-04 23:54 | 10.53739 | -65.47576 | 21047 ft | 400 kts | 92° |
| 2026-05-04 23:54 | 10.53550 | -65.44758 | 21048 ft | 399 kts | 92° |
| 2026-05-04 23:55 | 10.53363 | -65.41942 | 21050 ft | 399 kts | 92° |
| 2026-05-04 23:55 | 10.53173 | -65.39124 | 21050 ft | 399 kts | 92° |
| 2026-05-04 23:55 | 10.52788 | -65.33482 | 21048 ft | 400 kts | 92° |
| 2026-05-04 23:56 | 10.52598 | -65.30660 | 21048 ft | 399 kts | 92° |
| 2026-05-04 23:56 | 10.52408 | -65.27842 | 20992 ft | 401 kts | 92° |
| 2026-05-04 23:56 | 10.52216 | -65.25017 | 20797 ft | 399 kts | 92° |
| 2026-05-04 23:56 | 10.52026 | -65.22216 | 20561 ft | 396 kts | 92° |
| 2026-05-04 23:57 | 10.51834 | -65.19440 | 20322 ft | 392 kts | 92° |
| 2026-05-04 23:57 | 10.51649 | -65.16722 | 20089 ft | 389 kts | 93° |
| 2026-05-04 23:57 | 10.51462 | -65.13983 | 19853 ft | 387 kts | 93° |
| 2026-05-04 23:57 | 10.51276 | -65.11259 | 19625 ft | 385 kts | 93° |
| 2026-05-04 23:58 | 10.51092 | -65.08552 | 19398 ft | 382 kts | 93° |
| 2026-05-04 23:58 | 10.50902 | -65.05872 | 19172 ft | 379 kts | 93° |
| 2026-05-04 23:58 | 10.50705 | -65.03209 | 18945 ft | 377 kts | 93° |
| 2026-05-04 23:58 | 10.50514 | -65.00563 | 18728 ft | 374 kts | 93° |
| 2026-05-04 23:59 | 10.50327 | -64.97945 | 18698 ft | 368 kts | 93° |
| 2026-05-04 23:59 | 10.50143 | -64.95323 | 18439 ft | 377 kts | 93° |
| 2026-05-04 23:59 | 10.49959 | -64.92675 | 17857 ft | 372 kts | 93° |
| 2026-05-04 23:59 | 10.49780 | -64.90078 | 17346 ft | 365 kts | 93° |
| 2026-05-05 00:00 | 10.49603 | -64.87521 | 16839 ft | 360 kts | 94° |
| 2026-05-05 00:00 | 10.49488 | -64.85847 | 16525 ft | 358 kts | 93° |
| 2026-05-05 00:00 | 10.49272 | -64.82492 | 15904 ft | 354 kts | 93° |
| 2026-05-05 00:00 | 10.49110 | -64.80005 | 15444 ft | 352 kts | 93° |
| 2026-05-05 00:01 | 10.48945 | -64.77534 | 14982 ft | 349 kts | 94° |
| 2026-05-05 00:01 | 10.48781 | -64.75095 | 14517 ft | 342 kts | 94° |
| 2026-05-05 00:01 | 10.48620 | -64.72750 | 14074 ft | 333 kts | 94° |
| 2026-05-05 00:01 | 10.48448 | -64.70428 | 13631 ft | 326 kts | 94° |
| 2026-05-05 00:02 | 10.48281 | -64.68166 | 13226 ft | 317 kts | 94° |
| 2026-05-05 00:02 | 10.48133 | -64.65962 | 12808 ft | 309 kts | 94° |
| 2026-05-05 00:02 | 10.47988 | -64.63804 | 12404 ft | 303 kts | 94° |
| 2026-05-05 00:02 | 10.47845 | -64.61694 | 12016 ft | 297 kts | 94° |
| 2026-05-05 00:03 | 10.47704 | -64.59619 | 11629 ft | 292 kts | 94° |
| 2026-05-05 00:03 | 10.47563 | -64.57579 | 11181 ft | 289 kts | 94° |
| 2026-05-05 00:03 | 10.47384 | -64.55527 | 10501 ft | 294 kts | 101° |
| 2026-05-05 00:03 | 10.46668 | -64.53567 | 9832 ft | 296 kts | 116° |
| 2026-05-05 00:04 | 10.45682 | -64.51753 | 8900 ft | 292 kts | 117° |
| 2026-05-05 00:04 | 10.44728 | -64.49937 | 7980 ft | 290 kts | 117° |
| 2026-05-05 00:04 | 10.43840 | -64.48233 | 7123 ft | 288 kts | 118° |
| 2026-05-05 00:04 | 10.42911 | -64.46434 | 6219 ft | 287 kts | 118° |
| 2026-05-05 00:05 | 10.41993 | -64.44653 | 5306 ft | 285 kts | 118° |
| 2026-05-05 00:05 | 10.41081 | -64.42876 | 4421 ft | 283 kts | 117° |
| 2026-05-05 00:05 | 10.40224 | -64.41127 | 3821 ft | 270 kts | 111° |
| 2026-05-05 00:05 | 10.39987 | -64.39299 | 3240 ft | 259 kts | 83° |
| 2026-05-05 00:06 | 10.40346 | -64.37548 | 2779 ft | 246 kts | 78° |
| 2026-05-05 00:06 | 10.40669 | -64.35930 | 2490 ft | 224 kts | 80° |
| 2026-05-05 00:06 | 10.40935 | -64.34410 | 2421 ft | 211 kts | 81° |
| 2026-05-05 00:06 | 10.41189 | -64.32961 | 2379 ft | 209 kts | 79° |
| 2026-05-05 00:07 | 10.41443 | -64.31596 | 2292 ft | 182 kts | 80° |
| 2026-05-05 00:07 | 10.41660 | -64.30380 | 2279 ft | 169 kts | 81° |
| 2026-05-05 00:07 | 10.41855 | -64.29231 | 2273 ft | 160 kts | 81° |
| 2026-05-05 00:07 | 10.42041 | -64.28143 | 2265 ft | 153 kts | 80° |
| 2026-05-05 00:08 | 10.42216 | -64.27079 | 2153 ft | 154 kts | 83° |
| 2026-05-05 00:08 | 10.42302 | -64.25981 | 1881 ft | 156 kts | 88° |
| 2026-05-05 00:08 | 10.42281 | -64.24896 | 1716 ft | 149 kts | 94° |
| 2026-05-05 00:08 | 10.42192 | -64.23855 | 1620 ft | 145 kts | 96° |
| 2026-05-05 00:09 | 10.42059 | -64.22882 | 1617 ft | 139 kts | 98° |
| 2026-05-05 00:09 | 10.41918 | -64.21894 | 1576 ft | 142 kts | 96° |
| 2026-05-05 00:09 | 10.41829 | -64.20932 | 1619 ft | 132 kts | 89° |
| 2026-05-05 00:09 | 10.41862 | -64.20033 | 1464 ft | 122 kts | 84° |
| 2026-05-05 00:10 | 10.42045 | -64.19209 | 1210 ft | 118 kts | 72° |
| 2026-05-05 00:10 | 10.42320 | -64.18452 | 981 ft | 115 kts | 66° |
| 2026-05-05 00:10 | 10.42669 | -64.17679 | 801 ft | 126 kts | 63° |
| 2026-05-05 00:10 | 10.43077 | -64.16881 | 654 ft | 129 kts | 63° |
| 2026-05-05 00:11 | 10.43482 | -64.16076 | 487 ft | 127 kts | 62° |
| 2026-05-05 00:11 | 10.43888 | -64.15276 | 232 ft | 126 kts | 63° |
| 2026-05-05 00:11 | 10.44284 | -64.14506 | 61 ft | 119 kts | 63° |
| 2026-05-05 00:11 | 10.44621 | -64.13846 | 11 ft | 86 kts | 63° |
| 2026-05-05 00:12 | 10.44834 | -64.13438 | 14 ft | 54 kts | 61° |
| 2026-05-05 00:12 | 10.44952 | -64.13223 | 11 ft | 15 kts | 34° |
| 2026-05-05 00:12 | 10.45045 | -64.13235 | 12 ft | 11 kts | 334° |
| 2026-05-05 00:12 | 10.45081 | -64.13252 | 11 ft | 3 kts | 334° |
| 2026-05-05 00:13 | 10.45108 | -64.13266 | 11 ft | 6 kts | 334° |
| 2026-05-05 00:13 | 10.45120 | -64.13271 | 9 ft | 2 kts | 333° |
| 2026-05-05 00:13 | 10.45142 | -64.13285 | 9 ft | 5 kts | 327° |
| 2026-05-05 00:13 | 10.45161 | -64.13295 | 10 ft | 1 kts | 331° |
| 2026-05-05 00:14 | 10.45173 | -64.13302 | 7 ft | 3 kts | 331° |
| 2026-05-05 00:14 | 10.45189 | -64.13311 | 8 ft | 3 kts | 331° |
| 2026-05-05 00:14 | 10.45206 | -64.13320 | 7 ft | 1 kts | 332° |
| 2026-05-05 00:14 | 10.45211 | -64.13323 | 8 ft | 0 kts | 332° |